Time;durP1;ratioP1;P1;durP2;ratioP2;P2;SDS_P1;SDS_P2;PMS_P1;PMS_P2;Temp;Humidity;BMP_temperature;BMP_pressure;BME280_temperature;BME280_humidity;BME280_pressure;Samples;Min_cycle;Max_cycle;Signal;HPM_P1;HPM_P2
2021/03/16 00:01:37;;;;;;;;;;;;;;;17.82;66.71;99067.84;5042562;28;1513;-56
2021/03/16 00:04:03;;;;;;;;;;;;;;;17.82;66.65;99069.69;5034095;28;1331;-57
2021/03/16 00:06:28;;;;;;;;;;;;;;;17.83;66.96;99061.56;5045236;28;1683;-56
2021/03/16 00:08:54;;;;;;;;;;;;;;;17.84;67.23;99067.72;5044102;28;1574;-58
2021/03/16 00:11:19;;;;;;;;;;;;;;;17.86;66.25;99069.22;5019164;28;1652;-57
2021/03/16 00:13:44;;;;;;;;;;;;;;;17.85;66.68;99075.59;5034500;28;1890;-56
2021/03/16 00:16:10;;;;;;;;;;;;;;;17.86;66.52;99076.41;5047318;28;1327;-58
2021/03/16 00:18:35;;;;;;;;;;;;;;;17.85;67.15;99059.53;5038848;28;1473;-56
2021/03/16 00:21:01;;;;;;;;;;;;;;;17.83;66.32;99066.03;5043610;28;1518;-56
2021/03/16 00:23:26;;;;;;;;;;;;;;;17.82;66.27;99057.16;5039714;28;1553;-56
2021/03/16 00:25:52;;;;;;;;;;;;;;;17.84;66.23;99063.19;5046445;28;1475;-58
2021/03/16 00:28:17;;;;;;;;;;;;;;;17.81;66.14;99066.19;5034000;28;1224;-56
2021/03/16 00:30:42;;;;;;;;;;;;;;;17.83;66.54;99066.91;5033270;28;1494;-57
2021/03/16 00:33:08;;;;;;;;;;;;;;;17.80;66.95;99056.50;5033793;28;1910;-56
2021/03/16 00:35:33;;;;;;;;;;;;;;;17.76;66.59;99051.66;5037910;28;1427;-56
2021/03/16 00:37:58;;;;;;;;;;;;;;;17.76;67.02;99043.66;5040390;28;1586;-56
2021/03/16 00:40:24;;;;;;;;;;;;;;;17.75;66.68;99044.66;5039940;28;1319;-57
2021/03/16 00:42:49;;;;;;;;;;;;;;;17.72;67.09;99035.13;5042840;28;1533;-58
2021/03/16 00:45:15;;;;;;;;;;;;;;;17.72;66.88;99050.34;5042684;28;1331;-58
2021/03/16 00:47:40;;;;;;;;;;;;;;;17.74;67.01;99035.78;5040108;28;1540;-57
2021/03/16 00:50:06;;;;;;;;;;;;;;;17.70;67.11;99040.63;5041129;28;1388;-58
2021/03/16 00:52:32;;;;;;;;;;;;;;;17.73;67.16;99044.00;5040914;28;1947;-58
2021/03/16 00:54:57;;;;;;;;;;;;;;;17.70;66.70;99034.47;5036653;28;1295;-56
2021/03/16 00:57:23;;;;;;;;;;;;;;;17.72;66.79;99035.13;5034080;28;1411;-56
2021/03/16 00:59:48;;;;;;;;;;;;;;;17.71;66.89;99046.84;5033781;28;1349;-58
2021/03/16 01:02:15;;;;;;;;;;;;;;;17.72;67.29;99036.97;5035796;28;1622;-56
2021/03/16 01:04:40;;;;;;;;;;;;;;;17.66;67.20;99020.59;5022532;28;1430;-56
2021/03/16 01:07:06;;;;;;;;;;;;;;;17.66;66.66;99025.09;5033410;28;1366;-58
2021/03/16 01:09:31;;;;;;;;;;;;;;;17.65;66.75;99032.31;5033806;28;1494;-56
2021/03/16 01:11:56;;;;;;;;;;;;;;;17.65;67.23;99028.81;5036603;28;1745;-56
2021/03/16 01:14:22;;;;;;;;;;;;;;;17.65;66.94;99020.78;5040964;28;1898;-56
2021/03/16 01:16:47;;;;;;;;;;;;;;;17.65;66.60;99012.75;5035743;28;1533;-57
2021/03/16 01:19:13;;;;;;;;;;;;;;;17.64;66.63;99014.56;5042249;28;1334;-58
2021/03/16 01:21:38;;;;;;;;;;;;;;;17.65;67.08;99010.09;5033141;28;1669;-57
2021/03/16 01:24:04;;;;;;;;;;;;;;;17.62;66.65;98999.72;5034329;28;1685;-56
2021/03/16 01:26:29;;;;;;;;;;;;;;;17.61;66.63;98993.56;5032791;28;1470;-56
2021/03/16 01:28:54;;;;;;;;;;;;;;;17.64;66.07;99005.72;5033808;28;1449;-58
2021/03/16 01:31:20;;;;;;;;;;;;;;;17.63;65.91;99004.09;5033391;28;1323;-58
2021/03/16 01:33:45;;;;;;;;;;;;;;;17.65;66.45;98994.06;5034137;28;1923;-56
2021/03/16 01:36:11;;;;;;;;;;;;;;;17.68;67.08;98991.03;5040284;28;1514;-58
2021/03/16 01:38:36;;;;;;;;;;;;;;;17.64;66.96;98976.34;5046724;28;1693;-58
2021/03/16 01:41:01;;;;;;;;;;;;;;;17.65;66.34;98978.84;5033216;28;1409;-56
2021/03/16 01:43:31;;;;;;;;;;;;;;;17.65;66.42;98973.50;5040729;28;1401;-58
2021/03/16 01:45:57;;;;;;;;;;;;;;;17.66;66.11;98974.31;5037380;28;1276;-56
2021/03/16 01:48:27;;;;;;;;;;;;;;;17.65;66.22;98978.00;5037500;28;1744;-56
2021/03/16 01:50:53;;;;;;;;;;;;;;;17.61;66.69;98966.81;5023749;28;1686;-58
2021/03/16 01:53:18;;;;;;;;;;;;;;;17.63;66.83;98974.69;5037302;28;1893;-56
2021/03/16 01:55:44;;;;;;;;;;;;;;;17.60;66.16;98973.16;5038997;28;1326;-56
2021/03/16 01:58:09;;;;;;;;;;;;;;;17.63;66.37;98985.38;5018990;28;1758;-56
2021/03/16 02:00:39;;;;;;;;;;;;;;;17.58;66.85;98990.38;5047901;28;1697;-56
2021/03/16 02:03:05;;;;;;;;;;;;;;;17.59;66.80;99000.06;5031362;28;1706;-58
2021/03/16 02:05:30;;;;;;;;;;;;;;;17.57;66.31;99000.25;5042643;28;1387;-56
2021/03/16 02:08:16;;;;;;;;;;;;;;;17.59;66.50;99005.41;5042168;28;1546;-56
2021/03/16 02:11:01;;;;;;;;;;;;;;;17.56;66.98;99006.56;5029970;28;1776;-58
2021/03/16 02:13:26;;;;;;;;;;;;;;;17.54;67.20;99000.56;5024705;28;1897;-57
2021/03/16 02:15:56;;;;;;;;;;;;;;;17.56;66.59;99011.09;5037296;28;1690;-57
2021/03/16 02:18:23;;;;;;;;;;;;;;;17.56;67.05;99006.56;5042551;28;1422;-58
2021/03/16 02:21:07;;;;;;;;;;;;;;;17.54;66.08;99005.09;5035488;28;1465;-58
2021/03/16 02:23:59;;;;;;;;;;;;;;;17.53;66.25;98992.72;5034514;28;1474;-56
2021/03/16 02:26:43;;;;;;;;;;;;;;;17.56;66.77;99003.91;5033924;28;1570;-56
2021/03/16 02:29:14;;;;;;;;;;;;;;;17.57;67.37;98991.41;5031909;28;1442;-58
2021/03/16 02:31:43;;;;;;;;;;;;;;;17.57;66.73;98996.75;5030284;28;1434;-58
2021/03/16 02:34:09;;;;;;;;;;;;;;;17.54;67.15;98983.69;5027217;28;1910;-58
2021/03/16 02:36:36;;;;;;;;;;;;;;;17.54;67.42;98983.69;5021763;28;1409;-56
2021/03/16 02:39:03;;;;;;;;;;;;;;;17.52;67.38;98991.06;5028952;28;1064;-56
2021/03/16 02:41:29;;;;;;;;;;;;;;;17.49;67.60;98995.72;5022402;28;1980;-56
2021/03/16 02:43:54;;;;;;;;;;;;;;;17.48;67.97;98987.88;5025187;28;1409;-56
2021/03/16 02:46:20;;;;;;;;;;;;;;;17.48;67.81;98993.22;5026716;28;1445;-56
2021/03/16 02:48:47;;;;;;;;;;;;;;;17.52;68.17;98999.91;5025692;28;1119;-56
2021/03/16 02:51:13;;;;;;;;;;;;;;;17.56;67.10;99000.41;5024568;28;1658;-57
2021/03/16 02:53:39;;;;;;;;;;;;;;;17.65;68.14;98999.41;5031464;28;1886;-58
2021/03/16 02:56:06;;;;;;;;;;;;;;;17.74;67.03;98989.50;5048615;28;1581;-58
2021/03/16 02:58:32;;;;;;;;;;;;;;;17.84;67.19;98999.03;5047915;28;1559;-58
2021/03/16 03:00:58;;;;;;;;;;;;;;;17.95;66.89;99005.88;5037126;22;1983;-44
2021/03/16 03:03:24;;;;;;;;;;;;;;;18.03;67.47;98992.47;5023235;28;1811;-45
2021/03/16 03:05:50;;;;;;;;;;;;;;;18.06;67.40;98985.94;5031203;28;1518;-45
2021/03/16 03:08:17;;;;;;;;;;;;;;;18.17;66.58;98998.13;5024156;28;1550;-44
2021/03/16 03:10:42;;;;;;;;;;;;;;;18.26;67.04;99005.09;5038276;22;3694;-58
2021/03/16 03:13:07;;;;;;;;;;;;;;;18.29;66.84;99012.78;5002708;28;1891;-56
2021/03/16 03:15:32;;;;;;;;;;;;;;;18.34;66.63;99006.91;5012975;28;1727;-57
2021/03/16 03:17:58;;;;;;;;;;;;;;;18.39;66.94;99012.56;5011506;28;1761;-57
2021/03/16 03:20:24;;;;;;;;;;;;;;;18.47;66.54;99008.00;5011417;28;1239;-58
2021/03/16 03:22:52;;;;;;;;;;;;;;;18.51;66.30;99007.66;5011904;28;1299;-56
2021/03/16 03:25:26;;;;;;;;;;;;;;;18.55;66.53;99017.84;5014048;28;1222;-56
2021/03/16 03:28:02;;;;;;;;;;;;;;;18.60;66.18;99015.47;5010895;28;1216;-56
2021/03/16 03:30:28;;;;;;;;;;;;;;;18.59;66.41;99024.50;5011111;28;1448;-58
2021/03/16 03:32:57;;;;;;;;;;;;;;;18.66;66.21;99016.59;5011232;28;1945;-56
2021/03/16 03:35:23;;;;;;;;;;;;;;;18.65;66.18;99007.75;5011226;28;1112;-58
2021/03/16 03:37:48;;;;;;;;;;;;;;;18.69;65.99;99009.06;5011689;28;1787;-58
2021/03/16 03:40:14;;;;;;;;;;;;;;;18.68;66.21;99018.09;5011659;28;1441;-57
2021/03/16 03:42:40;;;;;;;;;;;;;;;18.67;66.21;99016.44;5010510;28;1393;-58
2021/03/16 03:45:06;;;;;;;;;;;;;;;18.70;65.88;99025.94;5012296;28;1463;-57
2021/03/16 03:47:31;;;;;;;;;;;;;;;18.73;66.60;99028.28;5010728;28;2099;-58
2021/03/16 03:49:57;;;;;;;;;;;;;;;18.69;66.23;99019.75;5010462;28;1192;-56
2021/03/16 03:52:23;;;;;;;;;;;;;;;18.66;66.31;99020.13;5012929;28;1961;-58
2021/03/16 03:54:49;;;;;;;;;;;;;;;18.65;66.28;99007.75;5012205;28;1026;-57
2021/03/16 03:57:15;;;;;;;;;;;;;;;18.67;66.41;99016.44;5011470;28;1421;-58
2021/03/16 03:59:45;;;;;;;;;;;;;;;18.68;66.28;99010.06;5010751;28;1259;-57
2021/03/16 04:02:11;;;;;;;;;;;;;;;18.73;66.59;99020.25;5018106;28;1744;-56
2021/03/16 04:04:37;;;;;;;;;;;;;;;18.73;66.72;99003.34;5022633;28;1633;-56
2021/03/16 04:07:03;;;;;;;;;;;;;;;18.71;67.25;99029.47;5024573;28;1542;-57
2021/03/16 04:09:28;;;;;;;;;;;;;;;18.65;67.89;99018.44;5019444;28;1622;-58
2021/03/16 04:11:54;;;;;;;;;;;;;;;18.63;67.48;99012.44;5017619;28;1428;-58
2021/03/16 04:14:20;;;;;;;;;;;;;;;18.63;67.80;99031.19;5008002;28;1915;-58
2021/03/16 04:16:46;;;;;;;;;;;;;;;18.52;67.40;99023.53;5001862;28;1492;-56
2021/03/16 04:19:12;;;;;;;;;;;;;;;18.46;68.00;99034.94;4989827;28;1627;-58
2021/03/16 04:21:38;;;;;;;;;;;;;;;18.45;67.56;99044.00;5006819;28;1352;-58
2021/03/16 04:24:03;;;;;;;;;;;;;;;18.38;67.96;99030.47;5002564;28;1531;-58
2021/03/16 04:26:29;;;;;;;;;;;;;;;18.33;67.63;99023.97;5007993;28;1480;-58
2021/03/16 04:28:54;;;;;;;;;;;;;;;18.31;67.99;99024.13;5010399;28;1504;-56
2021/03/16 04:31:20;;;;;;;;;;;;;;;18.29;67.53;99032.34;5007381;28;10801;-56
2021/03/16 04:33:45;;;;;;;;;;;;;;;18.25;68.16;99022.97;5005810;28;1964;-56
2021/03/16 04:36:10;;;;;;;;;;;;;;;18.20;67.67;99016.47;5007457;28;1750;-56
2021/03/16 04:38:36;;;;;;;;;;;;;;;18.16;67.96;99015.16;5004121;28;1388;-56
2021/03/16 04:41:01;;;;;;;;;;;;;;;18.12;68.20;99001.28;5007033;28;1489;-56
2021/03/16 04:43:27;;;;;;;;;;;;;;;18.10;67.42;99019.34;5003273;28;1499;-56
2021/03/16 04:45:52;;;;;;;;;;;;;;;18.07;68.49;99019.72;5005963;28;1735;-56
2021/03/16 04:48:17;;;;;;;;;;;;;;;18.04;68.00;99020.03;5011153;28;1339;-58
2021/03/16 04:50:43;;;;;;;;;;;;;;;18.02;67.92;99024.72;4975792;28;10930;-58
2021/03/16 04:53:08;;;;;;;;;;;;;;;18.00;68.24;99024.06;4998642;28;1910;-58
2021/03/16 04:55:34;;;;;;;;;;;;;;;18.02;67.89;99027.41;5010695;28;1733;-56
2021/03/16 04:58:00;;;;;;;;;;;;;;;17.97;68.04;99019.06;5007217;28;1734;-56
2021/03/16 05:00:25;;;;;;;;;;;;;;;17.97;68.01;99035.94;5010237;28;1423;-58
2021/03/16 05:02:50;;;;;;;;;;;;;;;18.07;67.76;99025.88;5005805;28;1665;-58
2021/03/16 05:05:16;;;;;;;;;;;;;;;18.22;67.31;99020.69;5007116;28;1481;-58
2021/03/16 05:07:41;;;;;;;;;;;;;;;18.42;67.25;99028.25;5007397;28;1237;-56
2021/03/16 05:10:07;;;;;;;;;;;;;;;18.59;66.89;99024.50;5010907;28;1091;-57
2021/03/16 05:12:32;;;;;;;;;;;;;;;18.73;66.15;99030.97;5026240;28;1914;-56
2021/03/16 05:14:58;;;;;;;;;;;;;;;18.79;65.67;99040.13;5025534;28;1462;-57
2021/03/16 05:17:23;;;;;;;;;;;;;;;18.84;65.60;99033.28;5025920;28;1626;-56
2021/03/16 05:19:49;;;;;;;;;;;;;;;18.88;65.36;99041.81;5030329;28;1602;-58
2021/03/16 05:22:14;;;;;;;;;;;;;;;18.85;65.30;99034.94;5015229;28;1611;-58
2021/03/16 05:24:39;;;;;;;;;;;;;;;18.69;65.98;99035.81;5021904;28;1475;-58
2021/03/16 05:27:05;;;;;;;;;;;;;;;18.57;66.84;99029.22;5028402;28;1587;-56
2021/03/16 05:29:31;;;;;;;;;;;;;;;18.54;67.34;99031.38;5025763;28;1757;-58
2021/03/16 05:31:56;;;;;;;;;;;;;;;18.48;67.79;99030.25;5028682;28;1550;-58
2021/03/16 05:34:21;;;;;;;;;;;;;;;18.51;68.24;99045.97;5026347;28;1886;-56
2021/03/16 05:36:47;;;;;;;;;;;;;;;18.49;67.99;99046.13;5026098;28;1607;-58
2021/03/16 05:39:12;;;;;;;;;;;;;;;18.47;67.86;99047.31;5025896;28;928;-57
2021/03/16 05:41:40;;;;;;;;;;;;;;;18.44;67.35;99043.16;5032662;28;1646;-58
2021/03/16 05:44:06;;;;;;;;;;;;;;;18.44;67.75;99042.31;5028313;28;1540;-57
2021/03/16 05:46:31;;;;;;;;;;;;;;;18.41;67.47;99031.97;5027969;28;1547;-56
2021/03/16 05:49:01;;;;;;;;;;;;;;;18.38;67.66;99034.97;5031711;28;1484;-56
2021/03/16 05:51:26;;;;;;;;;;;;;;;18.36;67.31;99028.97;5027280;28;1410;-58
2021/03/16 05:53:52;;;;;;;;;;;;;;;18.35;67.47;99035.34;5028993;28;1881;-58
2021/03/16 05:56:17;;;;;;;;;;;;;;;18.38;67.19;99038.50;5022573;28;1658;-56
2021/03/16 05:58:43;;;;;;;;;;;;;;;18.60;66.65;99036.91;5026138;28;1645;-56
2021/03/16 06:01:10;;;;;;;;;;;;;;;18.68;66.13;99034.19;5023948;28;1539;-56
2021/03/16 06:03:35;;;;;;;;;;;;;;;18.79;65.95;99037.47;5029500;28;1687;-58
2021/03/16 06:06:01;;;;;;;;;;;;;;;18.91;65.50;99038.75;5023017;28;1486;-58
2021/03/16 06:08:26;;;;;;;;;;;;;;;19.07;65.21;99046.69;5029390;28;1637;-56
2021/03/16 06:10:52;;;;;;;;;;;;;;;19.12;64.83;99056.03;5035986;28;1574;-58
2021/03/16 06:13:17;;;;;;;;;;;;;;;19.15;64.46;99047.66;5024340;28;1918;-56
2021/03/16 06:15:43;;;;;;;;;;;;;;;19.18;64.77;99058.00;5030981;28;1717;-56
2021/03/16 06:18:22;;;;;;;;;;;;;;;19.18;64.70;99060.66;5026444;28;1702;-58
2021/03/16 06:20:56;;;;;;;;;;;;;;;19.18;64.63;99058.84;5029474;28;1524;-58
2021/03/16 06:23:28;;;;;;;;;;;;;;;19.20;64.54;99042.56;5026107;28;1476;-58
2021/03/16 06:25:54;;;;;;;;;;;;;;;19.27;64.59;99044.34;5032699;28;1722;-58
2021/03/16 06:28:19;;;;;;;;;;;;;;;19.33;64.53;99060.75;5023257;28;10704;-57
2021/03/16 06:30:47;;;;;;;;;;;;;;;19.36;64.91;99052.31;5008260;28;1670;-57
2021/03/16 06:33:17;;;;;;;;;;;;;;;19.32;64.94;99061.75;5020164;28;2031;-58
2021/03/16 06:35:53;;;;;;;;;;;;;;;19.42;64.73;99071.22;5012560;28;1401;-61
2021/03/16 06:38:18;;;;;;;;;;;;;;;19.44;64.75;99063.84;5013250;28;1737;-57
2021/03/16 06:40:44;;;;;;;;;;;;;;;19.45;64.08;99070.84;5014908;28;1389;-56
2021/03/16 06:43:10;;;;;;;;;;;;;;;19.26;64.66;99082.91;5012228;28;1711;-56
2021/03/16 06:45:39;;;;;;;;;;;;;;;19.11;65.03;99067.78;5007909;28;1695;-55
2021/03/16 06:48:14;;;;;;;;;;;;;;;19.05;65.23;99045.19;5009680;28;1572;-56
2021/03/16 06:50:40;;;;;;;;;;;;;;;19.04;65.95;99073.84;5001968;28;1560;-58
2021/03/16 06:53:05;;;;;;;;;;;;;;;19.05;65.30;99062.09;5007700;28;1979;-56
2021/03/16 06:55:30;;;;;;;;;;;;;;;19.04;65.60;99070.34;5013058;28;1608;-56
2021/03/16 06:58:08;;;;;;;;;;;;;;;18.97;65.81;99066.69;5010822;28;1781;-56
2021/03/16 07:00:33;;;;;;;;;;;;;;;18.84;66.15;99060.06;5006681;28;1557;-56
2021/03/16 07:02:59;;;;;;;;;;;;;;;18.85;66.07;99074.28;5010580;28;1620;-57
2021/03/16 07:05:25;;;;;;;;;;;;;;;18.77;66.38;99076.97;4998205;28;1592;-58
2021/03/16 07:07:52;;;;;;;;;;;;;;;18.68;66.44;99081.50;5005756;28;1727;-58
2021/03/16 07:10:18;;;;;;;;;;;;;;;18.62;66.49;99067.00;5009670;28;1639;-58
2021/03/16 07:12:44;;;;;;;;;;;;;;;18.65;66.73;99071.16;4992556;28;1914;-58
2021/03/16 07:15:10;;;;;;;;;;;;;;;18.69;66.92;99072.50;5008041;28;1488;-58
2021/03/16 07:17:36;;;;;;;;;;;;;;;18.65;66.54;99080.03;5009717;28;1453;-58
2021/03/16 07:20:04;;;;;;;;;;;;;;;18.65;66.45;99093.41;5008220;28;1813;-58
2021/03/16 07:22:31;;;;;;;;;;;;;;;18.46;66.60;99093.81;5009394;28;1545;-58
2021/03/16 07:24:57;;;;;;;;;;;;;;;17.92;65.16;99091.78;5011880;28;1539;-61
2021/03/16 07:27:22;;;;;;;;;;;;;;;17.86;64.33;99103.97;5007155;28;1741;-58
2021/03/16 07:29:48;;;;;;;;;;;;;;;17.52;62.09;99095.28;5007730;28;1709;-63
2021/03/16 07:32:14;;;;;;;;;;;;;;;17.44;65.14;99118.31;5012176;28;1385;-60
2021/03/16 07:34:39;;;;;;;;;;;;;;;17.10;61.06;99118.44;5008354;28;1981;-61
2021/03/16 07:37:07;;;;;;;;;;;;;;;17.61;64.41;99110.34;5004143;28;1657;-55
2021/03/16 07:39:32;;;;;;;;;;;;;;;17.94;63.54;99099.63;5010110;28;1395;-56
2021/03/16 07:41:58;;;;;;;;;;;;;;;18.11;63.69;99103.13;5008950;28;1630;-63
2021/03/16 07:44:23;;;;;;;;;;;;;;;19.03;62.39;99100.78;5007085;28;1698;-60
2021/03/16 07:46:59;;;;;;;;;;;;;;;18.73;62.98;99105.94;5004245;28;1532;-61
2021/03/16 07:49:41;;;;;;;;;;;;;;;18.83;62.42;99100.41;5002824;28;1778;-59
2021/03/16 07:52:16;;;;;;;;;;;;;;;18.89;63.40;99110.41;5009576;28;1444;-59
2021/03/16 07:54:45;;;;;;;;;;;;;;;18.93;63.87;99114.41;5010102;28;1922;-59
2021/03/16 07:57:10;;;;;;;;;;;;;;;19.16;63.22;99110.94;5003384;28;1767;-63
2021/03/16 07:59:37;;;;;;;;;;;;;;;19.00;64.14;99099.31;5001704;28;1449;-64
2021/03/16 08:02:03;;;;;;;;;;;;;;;18.96;63.49;99115.91;5010631;28;1592;-59
2021/03/16 08:04:34;;;;;;;;;;;;;;;18.91;62.81;99102.22;4998454;28;1493;-60
2021/03/16 08:07:12;;;;;;;;;;;;;;;18.82;63.68;99114.78;5009904;28;1532;-64
2021/03/16 08:09:47;;;;;;;;;;;;;;;18.80;63.90;99116.81;5009553;28;1476;-65
2021/03/16 08:12:19;;;;;;;;;;;;;;;18.74;63.04;99123.69;5005606;28;1596;-60
2021/03/16 08:14:44;;;;;;;;;;;;;;;18.65;63.88;99130.06;4990798;28;1922;-61
2021/03/16 08:17:10;;;;;;;;;;;;;;;18.60;64.00;99145.81;4994806;28;1588;-61
2021/03/16 08:19:36;;;;;;;;;;;;;;;18.54;63.91;99136.63;4998462;28;1507;-61
2021/03/16 08:22:02;;;;;;;;;;;;;;;18.56;63.78;99141.81;5011865;28;1445;-60
2021/03/16 08:24:34;;;;;;;;;;;;;;;18.51;64.09;99131.63;4992802;28;1739;-60
2021/03/16 08:26:59;;;;;;;;;;;;;;;18.48;64.82;99135.50;4979164;28;1727;-60
2021/03/16 08:29:26;;;;;;;;;;;;;;;18.44;64.58;99128.81;5006128;28;1629;-66
2021/03/16 08:31:52;;;;;;;;;;;;;;;18.42;64.82;99135.31;4991937;28;1402;-61
2021/03/16 08:34:17;;;;;;;;;;;;;;;18.37;64.75;99133.16;5009119;28;1949;-60
2021/03/16 08:36:43;;;;;;;;;;;;;;;18.41;64.35;99137.16;5008420;28;1464;-67
2021/03/16 08:39:18;;;;;;;;;;;;;;;18.38;64.13;99134.00;5004899;28;1481;-65
2021/03/16 08:41:57;;;;;;;;;;;;;;;18.38;64.16;99137.53;5007512;28;1606;-65
2021/03/16 08:44:23;;;;;;;;;;;;;;;18.41;63.91;99131.00;5003111;28;1491;-60
2021/03/16 08:46:48;;;;;;;;;;;;;;;18.48;64.12;99127.47;4992570;28;1671;-65
2021/03/16 08:49:17;;;;;;;;;;;;;;;18.53;64.31;99137.63;5005632;28;1477;-66
2021/03/16 08:51:43;;;;;;;;;;;;;;;18.69;63.87;99126.03;5006816;28;1390;-59
2021/03/16 08:54:08;;;;;;;;;;;;;;;18.82;63.61;99130.84;4985620;28;1890;-61
2021/03/16 08:56:33;;;;;;;;;;;;;;;18.87;63.36;99132.00;4999052;28;1400;-61
2021/03/16 08:59:03;;;;;;;;;;;;;;;18.91;62.84;99134.34;5008415;28;1510;-66
2021/03/16 09:01:32;;;;;;;;;;;;;;;18.93;62.98;99122.44;4997748;28;1509;-66
2021/03/16 09:04:07;;;;;;;;;;;;;;;18.95;63.28;99128.47;5002351;28;1734;-60
2021/03/16 09:06:32;;;;;;;;;;;;;;;18.97;63.04;99131.78;5007722;28;1600;-66
2021/03/16 09:08:58;;;;;;;;;;;;;;;18.97;62.98;99136.31;5003642;28;1340;-60
2021/03/16 09:11:31;;;;;;;;;;;;;;;19.02;63.15;99142.84;4992252;28;1534;-60
2021/03/16 09:14:13;;;;;;;;;;;;;;;18.99;62.86;99140.50;5009921;28;1973;-65
2021/03/16 09:16:48;;;;;;;;;;;;;;;19.03;62.68;99149.84;5010454;28;1453;-60
2021/03/16 09:19:15;;;;;;;;;;;;;;;19.04;62.71;99150.72;4986834;28;1552;-59
2021/03/16 09:21:51;;;;;;;;;;;;;;;19.00;62.86;99142.19;4999959;28;1355;-66
2021/03/16 09:24:21;;;;;;;;;;;;;;;18.97;63.05;99155.91;5007815;28;1711;-65
2021/03/16 09:26:52;;;;;;;;;;;;;;;18.96;63.38;99153.41;5010222;28;1521;-65
2021/03/16 09:29:17;;;;;;;;;;;;;;;18.97;63.83;99153.22;5005150;28;1456;-65
2021/03/16 09:31:43;;;;;;;;;;;;;;;18.93;64.13;99165.31;4993837;28;1450;-61
2021/03/16 09:34:11;;;;;;;;;;;;;;;18.91;64.37;99156.59;5003864;28;1953;-61
2021/03/16 09:36:36;;;;;;;;;;;;;;;18.85;64.28;99151.94;5007745;28;1461;-61
2021/03/16 09:39:02;;;;;;;;;;;;;;;18.87;64.41;99158.78;4974718;28;1568;-61
2021/03/16 09:41:27;;;;;;;;;;;;;;;18.85;64.57;99159.97;5010463;28;1746;-61
2021/03/16 09:43:53;;;;;;;;;;;;;;;18.84;64.52;99161.84;5002870;28;1608;-64
2021/03/16 09:46:18;;;;;;;;;;;;;;;18.81;64.62;99167.53;5005818;28;1436;-64
2021/03/16 09:48:52;;;;;;;;;;;;;;;18.81;64.77;99167.53;5008462;28;1598;-61
2021/03/16 09:51:18;;;;;;;;;;;;;;;18.76;64.97;99174.38;4999960;28;1467;-60
2021/03/16 09:53:55;;;;;;;;;;;;;;;18.73;64.85;99183.59;5006886;28;1886;-60
2021/03/16 09:56:28;;;;;;;;;;;;;;;18.72;65.09;99189.09;5006668;28;1181;-64
2021/03/16 09:58:57;;;;;;;;;;;;;;;18.68;65.11;99188.63;5002904;28;1608;-60
2021/03/16 10:01:22;;;;;;;;;;;;;;;18.65;65.06;99186.28;5011121;28;1505;-63
2021/03/16 10:03:55;;;;;;;;;;;;;;;18.65;65.34;99186.28;5007621;28;1553;-59
2021/03/16 10:06:30;;;;;;;;;;;;;;;18.65;65.25;99195.16;5008782;28;1625;-69
2021/03/16 10:08:55;;;;;;;;;;;;;;;18.60;65.33;99186.81;5004768;28;1650;-63
2021/03/16 10:11:28;;;;;;;;;;;;;;;18.67;65.10;99213.72;4992135;28;1645;-61
2021/03/16 10:13:54;;;;;;;;;;;;;;;18.63;65.01;99196.34;5006494;28;1910;-62
2021/03/16 10:16:19;;;;;;;;;;;;;;;18.64;65.56;99203.34;4986454;28;1263;-61
2021/03/16 10:18:47;;;;;;;;;;;;;;;18.59;65.10;99206.56;5009711;28;1165;-60
2021/03/16 10:21:12;;;;;;;;;;;;;;;18.60;65.11;99202.88;4991882;28;1783;-60
2021/03/16 10:23:37;;;;;;;;;;;;;;;18.56;65.24;99200.69;5004903;28;1672;-62
2021/03/16 10:26:07;;;;;;;;;;;;;;;18.53;65.46;99201.06;5010373;28;1418;-59
2021/03/16 10:28:34;;;;;;;;;;;;;;;18.49;64.99;99204.06;5000573;28;1604;-60
2021/03/16 10:31:18;;;;;;;;;;;;;;;18.50;65.22;99215.59;5006839;28;1440;-59
2021/03/16 10:33:44;;;;;;;;;;;;;;;18.50;65.32;99212.91;5006515;28;1882;-66
2021/03/16 10:36:10;;;;;;;;;;;;;;;18.47;65.45;99210.59;5010786;28;1388;-60
2021/03/16 10:38:36;;;;;;;;;;;;;;;18.44;65.28;99230.53;4998636;28;1467;-58
2021/03/16 10:41:02;;;;;;;;;;;;;;;18.47;65.51;99218.63;5000291;28;1375;-58
2021/03/16 10:43:27;;;;;;;;;;;;;;;18.45;65.40;99216.13;5009164;28;1370;-59
2021/03/16 10:45:53;;;;;;;;;;;;;;;18.43;65.98;99212.78;5014989;28;1468;-59
2021/03/16 10:48:18;;;;;;;;;;;;;;;18.39;66.01;99213.28;5008078;28;1437;-58
2021/03/16 10:50:43;;;;;;;;;;;;;;;18.39;65.80;99205.25;5009910;28;1604;-57
2021/03/16 10:53:08;;;;;;;;;;;;;;;18.39;66.35;99194.56;5000820;28;1886;-58
2021/03/16 10:55:34;;;;;;;;;;;;;;;18.39;65.67;99206.09;5006497;28;805;-58
2021/03/16 10:57:59;;;;;;;;;;;;;;;18.38;65.84;99211.59;5008783;28;1858;-58
2021/03/16 11:00:24;;;;;;;;;;;;;;;18.40;65.96;99207.78;5008654;28;1726;-58
2021/03/16 11:02:50;;;;;;;;;;;;;;;18.39;66.37;99210.63;5006189;28;1536;-58
2021/03/16 11:05:15;;;;;;;;;;;;;;;18.35;66.53;99209.28;5018187;28;1613;-58
2021/03/16 11:07:40;;;;;;;;;;;;;;;18.35;66.63;99209.28;5012206;28;1546;-58
2021/03/16 11:10:06;;;;;;;;;;;;;;;18.31;66.20;99210.63;5015237;28;1130;-59
2021/03/16 11:12:31;;;;;;;;;;;;;;;18.31;66.20;99202.59;5014705;28;1910;-59
2021/03/16 11:14:56;;;;;;;;;;;;;;;18.28;66.24;99209.09;5004684;28;1196;-59
2021/03/16 11:17:22;;;;;;;;;;;;;;;18.28;66.64;99199.25;5008030;28;1406;-59
2021/03/16 11:19:47;;;;;;;;;;;;;;;18.30;66.32;99209.78;5017037;28;1480;-59
2021/03/16 11:22:12;;;;;;;;;;;;;;;18.27;66.16;99205.59;5006400;28;1545;-58
2021/03/16 11:24:38;;;;;;;;;;;;;;;18.26;66.15;99214.66;5014493;28;1324;-59
2021/03/16 11:27:03;;;;;;;;;;;;;;;18.26;66.62;99211.97;5018771;28;1609;-59
2021/03/16 11:29:29;;;;;;;;;;;;;;;18.24;66.47;99200.59;5007400;28;1389;-59
2021/03/16 11:31:54;;;;;;;;;;;;;;;18.23;66.14;99211.47;5007633;28;1413;-58
2021/03/16 11:34:20;;;;;;;;;;;;;;;18.24;66.34;99207.78;5005566;28;1886;-58
2021/03/16 11:36:45;;;;;;;;;;;;;;;18.26;66.44;99209.28;5005359;28;1481;-59
2021/03/16 11:39:11;;;;;;;;;;;;;;;18.23;66.43;99190.06;4997167;28;1437;-58
2021/03/16 11:41:36;;;;;;;;;;;;;;;18.24;66.59;99195.25;5002770;28;1471;-58
2021/03/16 11:44:02;;;;;;;;;;;;;;;18.24;66.71;99189.91;5019048;28;1365;-58
2021/03/16 11:46:27;;;;;;;;;;;;;;;18.22;66.25;99199.94;5011717;28;1387;-59
2021/03/16 11:48:52;;;;;;;;;;;;;;;18.19;66.37;99197.59;5005737;28;801;-58
2021/03/16 11:51:18;;;;;;;;;;;;;;;18.20;67.03;99172.47;5008635;28;1724;-59
2021/03/16 11:53:43;;;;;;;;;;;;;;;18.21;66.96;99170.66;4999849;28;1984;-58
2021/03/16 11:56:08;;;;;;;;;;;;;;;18.17;66.54;99172.84;5002194;28;1536;-58
2021/03/16 11:58:34;;;;;;;;;;;;;;;18.18;66.68;99182.53;5005102;28;1405;-63
2021/03/16 12:01:00;;;;;;;;;;;;;;;18.16;66.62;99171.16;5014854;28;1430;-58
2021/03/16 12:03:25;;;;;;;;;;;;;;;18.13;66.48;99179.53;5011421;28;1225;-58
2021/03/16 12:05:50;;;;;;;;;;;;;;;18.14;66.22;99177.69;5007258;28;1408;-63
2021/03/16 12:08:16;;;;;;;;;;;;;;;18.12;66.58;99169.81;5013441;28;1323;-62
2021/03/16 12:10:41;;;;;;;;;;;;;;;18.09;67.11;99168.31;5022077;28;1613;-58
2021/03/16 12:13:06;;;;;;;;;;;;;;;18.08;66.27;99168.50;5018471;28;1914;-58
2021/03/16 12:15:31;;;;;;;;;;;;;;;18.07;66.24;99173.00;5012315;28;1507;-62
2021/03/16 12:17:57;;;;;;;;;;;;;;;18.05;66.41;99172.34;5009644;28;1480;-63
2021/03/16 12:20:22;;;;;;;;;;;;;;;18.10;67.11;99147.75;5013273;28;1325;-62
2021/03/16 12:22:47;;;;;;;;;;;;;;;18.16;67.30;99168.47;5017632;28;1506;-63
2021/03/16 12:25:13;;;;;;;;;;;;;;;18.23;67.29;99171.34;5024698;28;1479;-63
2021/03/16 12:27:38;;;;;;;;;;;;;;;18.25;66.89;99167.47;5021538;28;1451;-59
2021/03/16 12:30:07;;;;;;;;;;;;;;;18.46;66.39;99164.28;5006097;28;1457;-63
2021/03/16 12:32:38;;;;;;;;;;;;;;;18.61;65.71;99175.09;5007406;28;1387;-59
2021/03/16 12:35:04;;;;;;;;;;;;;;;18.74;65.50;99176.38;5006332;28;1397;-62
2021/03/16 12:37:29;;;;;;;;;;;;;;;18.87;65.29;99164.16;4984785;28;1384;-59
2021/03/16 12:39:54;;;;;;;;;;;;;;;19.02;64.80;99174.13;5005848;28;847;-63
2021/03/16 12:42:20;;;;;;;;;;;;;;;19.00;65.12;99166.28;5009933;28;1462;-59
2021/03/16 12:44:45;;;;;;;;;;;;;;;19.04;64.83;99181.00;5015622;28;1506;-59
2021/03/16 12:47:10;;;;;;;;;;;;;;;19.08;65.09;99176.13;5012149;28;1657;-59
2021/03/16 12:49:36;;;;;;;;;;;;;;;19.10;64.57;99176.78;5019535;28;1673;-59
2021/03/16 12:52:01;;;;;;;;;;;;;;;19.15;64.48;99178.94;5028192;28;1586;-63
2021/03/16 12:54:26;;;;;;;;;;;;;;;19.16;64.62;99176.09;5010305;28;1911;-59
2021/03/16 12:56:52;;;;;;;;;;;;;;;19.14;64.54;99183.47;5012925;28;1570;-63